sensor_id;sensor_type;location;lat;lon;timestamp;temperature;humidity
8067;DHT22;4076;48.076;9.118;2023-01-13T00:02:12;6.30;99.90
8067;DHT22;4076;48.076;9.118;2023-01-13T00:04:37;6.30;99.90
8067;DHT22;4076;48.076;9.118;2023-01-13T00:07:03;6.20;99.90
8067;DHT22;4076;48.076;9.118;2023-01-13T00:09:28;6.20;99.90
8067;DHT22;4076;48.076;9.118;2023-01-13T00:11:54;6.20;99.90
8067;DHT22;4076;48.076;9.118;2023-01-13T00:14:21;6.20;99.90
8067;DHT22;4076;48.076;9.118;2023-01-13T00:16:46;6.10;99.90
8067;DHT22;4076;48.076;9.118;2023-01-13T00:19:12;6.10;99.90
8067;DHT22;4076;48.076;9.118;2023-01-13T00:21:37;6.00;99.90
8067;DHT22;4076;48.076;9.118;2023-01-13T00:24:03;6.00;99.90
8067;DHT22;4076;48.076;9.118;2023-01-13T00:26:29;6.00;99.90
8067;DHT22;4076;48.076;9.118;2023-01-13T00:28:58;6.00;99.90
8067;DHT22;4076;48.076;9.118;2023-01-13T00:31:25;6.00;99.90
8067;DHT22;4076;48.076;9.118;2023-01-13T00:33:51;6.00;99.90
8067;DHT22;4076;48.076;9.118;2023-01-13T00:36:19;6.00;99.90
8067;DHT22;4076;48.076;9.118;2023-01-13T00:38:45;6.00;99.90
8067;DHT22;4076;48.076;9.118;2023-01-13T00:41:16;5.90;99.90
8067;DHT22;4076;48.076;9.118;2023-01-13T00:43:42;5.80;99.90
8067;DHT22;4076;48.076;9.118;2023-01-13T00:46:11;5.80;99.90
8067;DHT22;4076;48.076;9.118;2023-01-13T00:48:37;5.80;99.90
8067;DHT22;4076;48.076;9.118;2023-01-13T00:51:05;5.80;99.90
8067;DHT22;4076;48.076;9.118;2023-01-13T00:53:40;5.80;99.90
8067;DHT22;4076;48.076;9.118;2023-01-13T00:58:39;5.80;99.90
8067;DHT22;4076;48.076;9.118;2023-01-13T01:01:08;5.80;99.90
8067;DHT22;4076;48.076;9.118;2023-01-13T01:03:34;5.80;99.90
8067;DHT22;4076;48.076;9.118;2023-01-13T01:06:06;5.80;99.90
8067;DHT22;4076;48.076;9.118;2023-01-13T01:08:35;5.90;99.90
8067;DHT22;4076;48.076;9.118;2023-01-13T01:11:03;5.90;99.90
8067;DHT22;4076;48.076;9.118;2023-01-13T01:13:29;5.90;99.90
8067;DHT22;4076;48.076;9.118;2023-01-13T01:15:54;5.90;99.90
8067;DHT22;4076;48.076;9.118;2023-01-13T01:18:20;5.90;99.90
8067;DHT22;4076;48.076;9.118;2023-01-13T01:20:46;5.90;99.90
8067;DHT22;4076;48.076;9.118;2023-01-13T01:23:11;5.90;99.90
8067;DHT22;4076;48.076;9.118;2023-01-13T01:25:37;5.90;99.90
8067;DHT22;4076;48.076;9.118;2023-01-13T01:28:02;5.90;99.90
8067;DHT22;4076;48.076;9.118;2023-01-13T01:30:28;6.00;99.90
8067;DHT22;4076;48.076;9.118;2023-01-13T01:32:53;5.90;99.90
8067;DHT22;4076;48.076;9.118;2023-01-13T01:35:22;6.00;99.90
8067;DHT22;4076;48.076;9.118;2023-01-13T01:37:47;5.80;99.90
8067;DHT22;4076;48.076;9.118;2023-01-13T01:40:13;5.80;99.90
8067;DHT22;4076;48.076;9.118;2023-01-13T01:42:39;5.80;99.90
8067;DHT22;4076;48.076;9.118;2023-01-13T01:45:24;5.80;99.90
8067;DHT22;4076;48.076;9.118;2023-01-13T01:47:55;5.90;99.90
8067;DHT22;4076;48.076;9.118;2023-01-13T01:50:22;5.80;99.90
8067;DHT22;4076;48.076;9.118;2023-01-13T01:52:52;5.80;99.90
8067;DHT22;4076;48.076;9.118;2023-01-13T01:55:21;5.80;99.90
8067;DHT22;4076;48.076;9.118;2023-01-13T02:00:20;5.80;99.90
8067;DHT22;4076;48.076;9.118;2023-01-13T02:02:47;5.80;99.90
8067;DHT22;4076;48.076;9.118;2023-01-13T02:05:15;5.70;99.90
8067;DHT22;4076;48.076;9.118;2023-01-13T02:07:42;5.80;99.90
8067;DHT22;4076;48.076;9.118;2023-01-13T02:10:12;5.80;99.90
8067;DHT22;4076;48.076;9.118;2023-01-13T02:12:39;5.90;99.90
8067;DHT22;4076;48.076;9.118;2023-01-13T02:15:12;5.80;99.90
8067;DHT22;4076;48.076;9.118;2023-01-13T02:17:51;5.80;99.90
8067;DHT22;4076;48.076;9.118;2023-01-13T02:20:37;5.80;99.90
8067;DHT22;4076;48.076;9.118;2023-01-13T02:29:44;5.70;99.90
8067;DHT22;4076;48.076;9.118;2023-01-13T02:37:57;5.80;99.90
8067;DHT22;4076;48.076;9.118;2023-01-13T02:40:40;5.80;99.90
8067;DHT22;4076;48.076;9.118;2023-01-13T02:43:22;5.80;99.90
8067;DHT22;4076;48.076;9.118;2023-01-13T02:49:29;5.70;99.90
8067;DHT22;4076;48.076;9.118;2023-01-13T02:52:02;5.70;99.90
8067;DHT22;4076;48.076;9.118;2023-01-13T02:54:31;5.70;99.90
8067;DHT22;4076;48.076;9.118;2023-01-13T02:56:59;5.70;99.90
8067;DHT22;4076;48.076;9.118;2023-01-13T02:59:26;5.70;99.90
8067;DHT22;4076;48.076;9.118;2023-01-13T03:01:55;5.70;99.90
8067;DHT22;4076;48.076;9.118;2023-01-13T03:04:50;5.70;99.90
8067;DHT22;4076;48.076;9.118;2023-01-13T03:09:47;5.60;99.90
8067;DHT22;4076;48.076;9.118;2023-01-13T03:12:27;5.60;99.90
8067;DHT22;4076;48.076;9.118;2023-01-13T03:17:53;5.60;99.90
8067;DHT22;4076;48.076;9.118;2023-01-13T03:20:31;5.50;99.90
8067;DHT22;4076;48.076;9.118;2023-01-13T03:23:13;5.60;99.90
8067;DHT22;4076;48.076;9.118;2023-01-13T03:25:48;5.60;99.90
8067;DHT22;4076;48.076;9.118;2023-01-13T03:28:38;5.60;99.90
8067;DHT22;4076;48.076;9.118;2023-01-13T03:31:15;5.60;99.90
8067;DHT22;4076;48.076;9.118;2023-01-13T03:33:49;5.60;99.90
8067;DHT22;4076;48.076;9.118;2023-01-13T03:36:21;5.80;99.90
8067;DHT22;4076;48.076;9.118;2023-01-13T03:38:56;5.60;99.90
8067;DHT22;4076;48.076;9.118;2023-01-13T03:41:28;5.60;99.90
8067;DHT22;4076;48.076;9.118;2023-01-13T03:49:23;5.80;99.90
8067;DHT22;4076;48.076;9.118;2023-01-13T03:52:03;5.80;99.90
8067;DHT22;4076;48.076;9.118;2023-01-13T03:54:32;5.90;99.90
8067;DHT22;4076;48.076;9.118;2023-01-13T03:57:05;5.90;99.90
8067;DHT22;4076;48.076;9.118;2023-01-13T03:59:36;6.00;99.90
8067;DHT22;4076;48.076;9.118;2023-01-13T04:02:24;6.00;99.90
8067;DHT22;4076;48.076;9.118;2023-01-13T04:04:59;6.00;99.90
8067;DHT22;4076;48.076;9.118;2023-01-13T04:08:00;6.00;99.90
8067;DHT22;4076;48.076;9.118;2023-01-13T04:13:18;6.30;99.90
8067;DHT22;4076;48.076;9.118;2023-01-13T04:15:45;6.40;99.90
8067;DHT22;4076;48.076;9.118;2023-01-13T04:20:37;6.40;99.90
8067;DHT22;4076;48.076;9.118;2023-01-13T04:23:04;6.50;99.90
8067;DHT22;4076;48.076;9.118;2023-01-13T04:25:30;6.50;99.90
8067;DHT22;4076;48.076;9.118;2023-01-13T04:27:56;6.60;99.90
8067;DHT22;4076;48.076;9.118;2023-01-13T04:30:22;6.70;99.90
8067;DHT22;4076;48.076;9.118;2023-01-13T04:32:47;6.70;99.90
8067;DHT22;4076;48.076;9.118;2023-01-13T04:35:13;6.70;99.90
8067;DHT22;4076;48.076;9.118;2023-01-13T04:37:38;6.70;99.90
8067;DHT22;4076;48.076;9.118;2023-01-13T04:40:05;6.70;99.90
8067;DHT22;4076;48.076;9.118;2023-01-13T04:42:30;6.70;99.90
8067;DHT22;4076;48.076;9.118;2023-01-13T04:44:56;6.70;99.90
8067;DHT22;4076;48.076;9.118;2023-01-13T04:47:22;6.70;99.90
8067;DHT22;4076;48.076;9.118;2023-01-13T04:49:47;6.70;99.90
8067;DHT22;4076;48.076;9.118;2023-01-13T04:52:13;6.70;99.90
8067;DHT22;4076;48.076;9.118;2023-01-13T04:54:38;6.70;99.90
8067;DHT22;4076;48.076;9.118;2023-01-13T04:57:04;6.70;99.90
8067;DHT22;4076;48.076;9.118;2023-01-13T04:59:29;6.80;99.90
8067;DHT22;4076;48.076;9.118;2023-01-13T05:01:55;6.70;99.90
8067;DHT22;4076;48.076;9.118;2023-01-13T05:04:20;6.70;99.90
8067;DHT22;4076;48.076;9.118;2023-01-13T05:06:46;6.70;99.90
8067;DHT22;4076;48.076;9.118;2023-01-13T05:09:12;6.70;99.90
8067;DHT22;4076;48.076;9.118;2023-01-13T05:11:40;6.70;99.90
8067;DHT22;4076;48.076;9.118;2023-01-13T05:14:24;6.70;99.90
8067;DHT22;4076;48.076;9.118;2023-01-13T05:17:12;6.70;99.90
8067;DHT22;4076;48.076;9.118;2023-01-13T05:19:40;6.70;99.90
8067;DHT22;4076;48.076;9.118;2023-01-13T05:22:06;6.80;99.90
8067;DHT22;4076;48.076;9.118;2023-01-13T05:24:50;6.80;99.90
8067;DHT22;4076;48.076;9.118;2023-01-13T05:27:34;6.80;99.90
8067;DHT22;4076;48.076;9.118;2023-01-13T05:30:00;6.80;99.90
8067;DHT22;4076;48.076;9.118;2023-01-13T05:32:26;6.80;99.90
8067;DHT22;4076;48.076;9.118;2023-01-13T05:34:55;6.80;99.90
8067;DHT22;4076;48.076;9.118;2023-01-13T05:37:21;6.80;99.90
8067;DHT22;4076;48.076;9.118;2023-01-13T05:39:47;6.80;99.90
8067;DHT22;4076;48.076;9.118;2023-01-13T05:42:31;6.80;99.90
8067;DHT22;4076;48.076;9.118;2023-01-13T05:45:15;6.80;99.90
8067;DHT22;4076;48.076;9.118;2023-01-13T05:47:41;6.80;99.90
8067;DHT22;4076;48.076;9.118;2023-01-13T05:50:07;6.80;99.90
8067;DHT22;4076;48.076;9.118;2023-01-13T05:52:33;6.80;99.90
8067;DHT22;4076;48.076;9.118;2023-01-13T05:54:58;6.90;99.90
8067;DHT22;4076;48.076;9.118;2023-01-13T05:57:24;6.80;99.90
8067;DHT22;4076;48.076;9.118;2023-01-13T05:59:49;6.80;99.90
8067;DHT22;4076;48.076;9.118;2023-01-13T06:02:15;6.80;99.90
8067;DHT22;4076;48.076;9.118;2023-01-13T06:04:40;6.80;99.90
8067;DHT22;4076;48.076;9.118;2023-01-13T06:07:06;6.70;99.90
8067;DHT22;4076;48.076;9.118;2023-01-13T06:09:31;6.70;99.90
8067;DHT22;4076;48.076;9.118;2023-01-13T06:11:57;6.70;99.90
8067;DHT22;4076;48.076;9.118;2023-01-13T06:14:23;6.80;99.90
8067;DHT22;4076;48.076;9.118;2023-01-13T06:16:48;6.80;99.90
8067;DHT22;4076;48.076;9.118;2023-01-13T06:19:14;6.80;99.90
8067;DHT22;4076;48.076;9.118;2023-01-13T06:21:39;6.80;99.90
8067;DHT22;4076;48.076;9.118;2023-01-13T06:24:06;6.80;99.90
8067;DHT22;4076;48.076;9.118;2023-01-13T06:26:38;6.70;99.90
8067;DHT22;4076;48.076;9.118;2023-01-13T06:29:05;6.70;99.90
8067;DHT22;4076;48.076;9.118;2023-01-13T06:31:35;6.80;99.90
8067;DHT22;4076;48.076;9.118;2023-01-13T06:34:06;6.80;99.90
8067;DHT22;4076;48.076;9.118;2023-01-13T06:36:39;6.70;99.90
8067;DHT22;4076;48.076;9.118;2023-01-13T06:39:08;6.70;99.90
8067;DHT22;4076;48.076;9.118;2023-01-13T06:41:34;6.70;99.90
8067;DHT22;4076;48.076;9.118;2023-01-13T06:44:20;6.70;99.90
8067;DHT22;4076;48.076;9.118;2023-01-13T06:46:47;6.70;99.90
8067;DHT22;4076;48.076;9.118;2023-01-13T06:49:12;6.70;99.90
8067;DHT22;4076;48.076;9.118;2023-01-13T06:51:38;6.70;99.90
8067;DHT22;4076;48.076;9.118;2023-01-13T06:54:04;6.70;99.90
8067;DHT22;4076;48.076;9.118;2023-01-13T06:56:29;6.70;99.90
8067;DHT22;4076;48.076;9.118;2023-01-13T06:58:55;6.70;99.90
8067;DHT22;4076;48.076;9.118;2023-01-13T07:01:20;6.70;99.90
8067;DHT22;4076;48.076;9.118;2023-01-13T07:03:46;6.70;99.90
8067;DHT22;4076;48.076;9.118;2023-01-13T07:06:11;6.80;99.90
8067;DHT22;4076;48.076;9.118;2023-01-13T07:08:37;6.80;99.90
8067;DHT22;4076;48.076;9.118;2023-01-13T07:11:03;6.80;99.90
8067;DHT22;4076;48.076;9.118;2023-01-13T07:13:28;6.80;99.90
8067;DHT22;4076;48.076;9.118;2023-01-13T07:16:13;6.80;99.90
8067;DHT22;4076;48.076;9.118;2023-01-13T07:18:38;6.80;99.90
8067;DHT22;4076;48.076;9.118;2023-01-13T07:21:06;6.90;99.90
8067;DHT22;4076;48.076;9.118;2023-01-13T07:23:39;6.80;99.90
8067;DHT22;4076;48.076;9.118;2023-01-13T07:26:13;6.80;99.90
8067;DHT22;4076;48.076;9.118;2023-01-13T07:28:40;6.80;99.90
8067;DHT22;4076;48.076;9.118;2023-01-13T07:31:15;6.90;99.90
8067;DHT22;4076;48.076;9.118;2023-01-13T07:33:41;6.90;99.90
8067;DHT22;4076;48.076;9.118;2023-01-13T07:36:07;6.90;99.90
8067;DHT22;4076;48.076;9.118;2023-01-13T07:38:34;6.90;99.90
8067;DHT22;4076;48.076;9.118;2023-01-13T07:41:00;6.80;99.90
8067;DHT22;4076;48.076;9.118;2023-01-13T07:43:44;7.00;99.90
8067;DHT22;4076;48.076;9.118;2023-01-13T07:46:10;6.90;99.90
8067;DHT22;4076;48.076;9.118;2023-01-13T07:48:36;6.90;99.90
8067;DHT22;4076;48.076;9.118;2023-01-13T07:51:06;7.00;99.90
8067;DHT22;4076;48.076;9.118;2023-01-13T07:53:33;7.00;99.90
8067;DHT22;4076;48.076;9.118;2023-01-13T07:55:59;7.00;99.90
8067;DHT22;4076;48.076;9.118;2023-01-13T07:58:26;6.90;99.90
8067;DHT22;4076;48.076;9.118;2023-01-13T08:00:52;6.90;99.90
8067;DHT22;4076;48.076;9.118;2023-01-13T08:03:18;6.90;99.90
8067;DHT22;4076;48.076;9.118;2023-01-13T08:05:44;6.90;99.90
8067;DHT22;4076;48.076;9.118;2023-01-13T08:08:10;6.90;99.90
8067;DHT22;4076;48.076;9.118;2023-01-13T08:10:35;7.00;99.90
8067;DHT22;4076;48.076;9.118;2023-01-13T08:13:10;6.90;99.90
8067;DHT22;4076;48.076;9.118;2023-01-13T08:15:45;7.10;99.90
8067;DHT22;4076;48.076;9.118;2023-01-13T08:18:11;7.20;99.90
8067;DHT22;4076;48.076;9.118;2023-01-13T08:20:37;7.30;99.90
8067;DHT22;4076;48.076;9.118;2023-01-13T08:23:03;7.40;99.90
8067;DHT22;4076;48.076;9.118;2023-01-13T08:25:29;7.50;99.90
8067;DHT22;4076;48.076;9.118;2023-01-13T08:27:55;7.60;99.90
8067;DHT22;4076;48.076;9.118;2023-01-13T08:30:21;7.60;99.90
8067;DHT22;4076;48.076;9.118;2023-01-13T08:32:48;7.90;99.90
8067;DHT22;4076;48.076;9.118;2023-01-13T08:35:15;8.00;99.90
8067;DHT22;4076;48.076;9.118;2023-01-13T08:37:42;8.30;99.90
8067;DHT22;4076;48.076;9.118;2023-01-13T08:40:09;8.50;99.90
8067;DHT22;4076;48.076;9.118;2023-01-13T08:42:35;8.90;99.90
8067;DHT22;4076;48.076;9.118;2023-01-13T08:45:00;9.00;99.90
8067;DHT22;4076;48.076;9.118;2023-01-13T08:47:27;9.10;99.90
8067;DHT22;4076;48.076;9.118;2023-01-13T08:49:53;9.20;99.90
8067;DHT22;4076;48.076;9.118;2023-01-13T08:52:19;9.30;99.90
8067;DHT22;4076;48.076;9.118;2023-01-13T08:54:45;9.50;99.90
8067;DHT22;4076;48.076;9.118;2023-01-13T08:57:11;9.70;99.90
8067;DHT22;4076;48.076;9.118;2023-01-13T08:59:38;9.80;99.90
8067;DHT22;4076;48.076;9.118;2023-01-13T09:02:12;9.70;99.90
8067;DHT22;4076;48.076;9.118;2023-01-13T09:04:38;9.60;99.90
8067;DHT22;4076;48.076;9.118;2023-01-13T09:07:04;9.30;99.90
8067;DHT22;4076;48.076;9.118;2023-01-13T09:09:29;9.20;99.90
8067;DHT22;4076;48.076;9.118;2023-01-13T09:11:55;9.10;99.90
8067;DHT22;4076;48.076;9.118;2023-01-13T09:14:39;9.10;99.90
8067;DHT22;4076;48.076;9.118;2023-01-13T09:17:05;8.90;99.90
8067;DHT22;4076;48.076;9.118;2023-01-13T09:19:32;8.70;99.90
8067;DHT22;4076;48.076;9.118;2023-01-13T09:21:58;8.50;99.90
8067;DHT22;4076;48.076;9.118;2023-01-13T09:24:24;8.40;99.90
8067;DHT22;4076;48.076;9.118;2023-01-13T09:26:50;8.30;99.90
8067;DHT22;4076;48.076;9.118;2023-01-13T09:29:16;8.30;99.90
8067;DHT22;4076;48.076;9.118;2023-01-13T09:31:42;8.30;99.90
8067;DHT22;4076;48.076;9.118;2023-01-13T09:34:12;8.60;99.90
8067;DHT22;4076;48.076;9.118;2023-01-13T09:36:57;8.90;99.90
8067;DHT22;4076;48.076;9.118;2023-01-13T09:39:23;9.10;99.90
8067;DHT22;4076;48.076;9.118;2023-01-13T09:41:51;9.20;99.90
8067;DHT22;4076;48.076;9.118;2023-01-13T09:44:50;9.20;99.90
8067;DHT22;4076;48.076;9.118;2023-01-13T09:47:25;9.10;99.90
8067;DHT22;4076;48.076;9.118;2023-01-13T09:52:32;9.70;99.90
8067;DHT22;4076;48.076;9.118;2023-01-13T09:57:37;9.60;99.90
8067;DHT22;4076;48.076;9.118;2023-01-13T10:00:11;9.50;99.90
8067;DHT22;4076;48.076;9.118;2023-01-13T10:02:56;9.50;99.90
8067;DHT22;4076;48.076;9.118;2023-01-13T10:05:38;9.70;99.90
8067;DHT22;4076;48.076;9.118;2023-01-13T10:08:12;9.80;99.90
8067;DHT22;4076;48.076;9.118;2023-01-13T10:10:44;10.00;99.90
8067;DHT22;4076;48.076;9.118;2023-01-13T10:16:01;10.30;99.90
8067;DHT22;4076;48.076;9.118;2023-01-13T10:27:01;9.90;99.90
8067;DHT22;4076;48.076;9.118;2023-01-13T10:29:29;9.80;99.90
8067;DHT22;4076;48.076;9.118;2023-01-13T10:31:57;9.70;99.90
8067;DHT22;4076;48.076;9.118;2023-01-13T10:34:24;9.60;99.90
8067;DHT22;4076;48.076;9.118;2023-01-13T10:37:21;9.60;99.90
8067;DHT22;4076;48.076;9.118;2023-01-13T10:39:48;9.90;99.90
8067;DHT22;4076;48.076;9.118;2023-01-13T10:42:19;10.30;99.90
8067;DHT22;4076;48.076;9.118;2023-01-13T10:44:49;10.50;99.90
8067;DHT22;4076;48.076;9.118;2023-01-13T10:50:15;10.70;99.90
8067;DHT22;4076;48.076;9.118;2023-01-13T10:53:16;10.60;99.90
8067;DHT22;4076;48.076;9.118;2023-01-13T10:55:42;10.40;99.90
8067;DHT22;4076;48.076;9.118;2023-01-13T10:58:13;10.10;99.90
8067;DHT22;4076;48.076;9.118;2023-01-13T11:00:40;9.80;99.90
8067;DHT22;4076;48.076;9.118;2023-01-13T11:05:54;9.40;99.90
8067;DHT22;4076;48.076;9.118;2023-01-13T11:08:26;9.30;99.90
8067;DHT22;4076;48.076;9.118;2023-01-13T11:10:55;9.30;99.90
8067;DHT22;4076;48.076;9.118;2023-01-13T11:13:32;9.30;99.90
8067;DHT22;4076;48.076;9.118;2023-01-13T11:16:12;9.20;99.90
8067;DHT22;4076;48.076;9.118;2023-01-13T11:18:49;9.20;99.90
8067;DHT22;4076;48.076;9.118;2023-01-13T11:21:45;9.20;99.90
8067;DHT22;4076;48.076;9.118;2023-01-13T11:24:20;9.30;99.90
8067;DHT22;4076;48.076;9.118;2023-01-13T11:26:54;9.40;99.90
8067;DHT22;4076;48.076;9.118;2023-01-13T11:29:40;9.60;99.90
8067;DHT22;4076;48.076;9.118;2023-01-13T11:32:17;9.60;99.90
8067;DHT22;4076;48.076;9.118;2023-01-13T11:34:47;10.10;99.90
8067;DHT22;4076;48.076;9.118;2023-01-13T11:37:22;10.60;99.90
8067;DHT22;4076;48.076;9.118;2023-01-13T11:40:13;10.90;99.90
8067;DHT22;4076;48.076;9.118;2023-01-13T11:42:48;13.20;99.90
8067;DHT22;4076;48.076;9.118;2023-01-13T11:48:03;17.20;88.40
8067;DHT22;4076;48.076;9.118;2023-01-13T12:04:26;18.80;53.30
8067;DHT22;4076;48.076;9.118;2023-01-13T12:10:16;17.00;54.10
8067;DHT22;4076;48.076;9.118;2023-01-13T12:26:10;15.00;55.00
8067;DHT22;4076;48.076;9.118;2023-01-13T12:28:43;15.20;56.70
8067;DHT22;4076;48.076;9.118;2023-01-13T12:31:11;15.20;55.60
8067;DHT22;4076;48.076;9.118;2023-01-13T12:43:18;11.20;56.40
8067;DHT22;4076;48.076;9.118;2023-01-13T12:51:25;9.10;64.80
8067;DHT22;4076;48.076;9.118;2023-01-13T12:53:51;8.90;66.70
8067;DHT22;4076;48.076;9.118;2023-01-13T12:56:30;8.70;67.50
8067;DHT22;4076;48.076;9.118;2023-01-13T13:01:42;8.50;69.10
8067;DHT22;4076;48.076;9.118;2023-01-13T13:04:12;8.40;68.70
8067;DHT22;4076;48.076;9.118;2023-01-13T13:06:40;8.30;70.30
8067;DHT22;4076;48.076;9.118;2023-01-13T13:09:33;8.30;71.90
8067;DHT22;4076;48.076;9.118;2023-01-13T13:15:21;8.50;76.40
8067;DHT22;4076;48.076;9.118;2023-01-13T13:21:08;8.90;77.30
8067;DHT22;4076;48.076;9.118;2023-01-13T13:23:38;9.00;76.40
8067;DHT22;4076;48.076;9.118;2023-01-13T13:26:35;9.10;76.70
8067;DHT22;4076;48.076;9.118;2023-01-13T13:29:28;9.10;77.20
8067;DHT22;4076;48.076;9.118;2023-01-13T13:32:26;9.00;77.10
8067;DHT22;4076;48.076;9.118;2023-01-13T13:35:03;9.00;78.80
8067;DHT22;4076;48.076;9.118;2023-01-13T13:40:43;8.80;80.10
8067;DHT22;4076;48.076;9.118;2023-01-13T13:43:36;8.70;80.90
8067;DHT22;4076;48.076;9.118;2023-01-13T13:46:28;8.60;82.30
8067;DHT22;4076;48.076;9.118;2023-01-13T13:54:19;8.20;87.10
8067;DHT22;4076;48.076;9.118;2023-01-13T13:56:46;8.10;88.20
8067;DHT22;4076;48.076;9.118;2023-01-13T13:59:17;7.90;90.00
8067;DHT22;4076;48.076;9.118;2023-01-13T14:01:45;7.90;90.60
8067;DHT22;4076;48.076;9.118;2023-01-13T14:04:20;7.90;91.30
8067;DHT22;4076;48.076;9.118;2023-01-13T14:07:01;8.00;91.30
8067;DHT22;4076;48.076;9.118;2023-01-13T14:09:42;8.10;92.10
8067;DHT22;4076;48.076;9.118;2023-01-13T14:12:16;8.20;92.00
8067;DHT22;4076;48.076;9.118;2023-01-13T14:14:43;8.20;91.80
8067;DHT22;4076;48.076;9.118;2023-01-13T14:17:23;8.30;92.20
8067;DHT22;4076;48.076;9.118;2023-01-13T14:20:06;8.40;91.60
8067;DHT22;4076;48.076;9.118;2023-01-13T14:22:39;8.40;90.30
8067;DHT22;4076;48.076;9.118;2023-01-13T14:25:28;8.30;90.20
8067;DHT22;4076;48.076;9.118;2023-01-13T14:27:55;8.30;90.40
8067;DHT22;4076;48.076;9.118;2023-01-13T14:30:26;8.10;90.30
8067;DHT22;4076;48.076;9.118;2023-01-13T14:32:52;8.10;90.50
8067;DHT22;4076;48.076;9.118;2023-01-13T14:35:18;8.10;90.00
8067;DHT22;4076;48.076;9.118;2023-01-13T14:37:44;8.10;90.10
8067;DHT22;4076;48.076;9.118;2023-01-13T14:43:12;8.10;89.50
8067;DHT22;4076;48.076;9.118;2023-01-13T14:45:42;8.00;86.50
8067;DHT22;4076;48.076;9.118;2023-01-13T14:48:08;7.90;85.10
8067;DHT22;4076;48.076;9.118;2023-01-13T14:50:34;7.80;84.30
8067;DHT22;4076;48.076;9.118;2023-01-13T14:53:01;7.70;84.20
8067;DHT22;4076;48.076;9.118;2023-01-13T14:55:34;7.60;83.90
8067;DHT22;4076;48.076;9.118;2023-01-13T14:58:25;7.60;83.70
8067;DHT22;4076;48.076;9.118;2023-01-13T15:04:15;7.50;84.20
8067;DHT22;4076;48.076;9.118;2023-01-13T15:06:45;7.50;83.30
8067;DHT22;4076;48.076;9.118;2023-01-13T15:09:12;7.50;84.50
8067;DHT22;4076;48.076;9.118;2023-01-13T15:11:38;7.40;84.60
8067;DHT22;4076;48.076;9.118;2023-01-13T15:14:09;7.30;85.00
8067;DHT22;4076;48.076;9.118;2023-01-13T15:16:35;7.30;86.10
8067;DHT22;4076;48.076;9.118;2023-01-13T15:19:01;7.30;86.70
8067;DHT22;4076;48.076;9.118;2023-01-13T15:21:27;7.20;87.70
8067;DHT22;4076;48.076;9.118;2023-01-13T15:23:53;7.10;88.60
8067;DHT22;4076;48.076;9.118;2023-01-13T15:26:25;7.10;89.90
8067;DHT22;4076;48.076;9.118;2023-01-13T15:28:52;7.00;90.60
8067;DHT22;4076;48.076;9.118;2023-01-13T15:31:19;7.00;90.80
8067;DHT22;4076;48.076;9.118;2023-01-13T15:33:44;6.90;90.80
8067;DHT22;4076;48.076;9.118;2023-01-13T15:36:21;6.90;91.70
8067;DHT22;4076;48.076;9.118;2023-01-13T15:38:48;6.80;92.00
8067;DHT22;4076;48.076;9.118;2023-01-13T15:41:13;6.70;91.70
8067;DHT22;4076;48.076;9.118;2023-01-13T15:43:39;6.80;91.50
8067;DHT22;4076;48.076;9.118;2023-01-13T15:46:23;6.80;91.60
8067;DHT22;4076;48.076;9.118;2023-01-13T15:49:34;6.80;92.50
8067;DHT22;4076;48.076;9.118;2023-01-13T15:52:15;6.80;92.30
8067;DHT22;4076;48.076;9.118;2023-01-13T15:54:41;6.90;92.00
8067;DHT22;4076;48.076;9.118;2023-01-13T15:57:18;6.70;92.30
8067;DHT22;4076;48.076;9.118;2023-01-13T15:59:44;6.60;92.40
8067;DHT22;4076;48.076;9.118;2023-01-13T16:02:12;6.50;92.80
8067;DHT22;4076;48.076;9.118;2023-01-13T16:04:40;6.50;93.30
8067;DHT22;4076;48.076;9.118;2023-01-13T16:07:13;6.50;93.40
8067;DHT22;4076;48.076;9.118;2023-01-13T16:09:39;6.50;93.80
8067;DHT22;4076;48.076;9.118;2023-01-13T16:12:04;6.40;93.50
8067;DHT22;4076;48.076;9.118;2023-01-13T16:14:30;6.40;93.60
8067;DHT22;4076;48.076;9.118;2023-01-13T16:16:56;6.30;93.70
8067;DHT22;4076;48.076;9.118;2023-01-13T16:19:21;6.30;94.00
8067;DHT22;4076;48.076;9.118;2023-01-13T16:21:47;6.20;94.20
8067;DHT22;4076;48.076;9.118;2023-01-13T16:24:12;6.10;94.30
8067;DHT22;4076;48.076;9.118;2023-01-13T16:26:38;6.10;94.60
8067;DHT22;4076;48.076;9.118;2023-01-13T16:29:04;6.00;95.00
8067;DHT22;4076;48.076;9.118;2023-01-13T16:31:32;5.90;95.40
8067;DHT22;4076;48.076;9.118;2023-01-13T16:34:01;5.80;96.10
8067;DHT22;4076;48.076;9.118;2023-01-13T16:36:30;5.60;96.50
8067;DHT22;4076;48.076;9.118;2023-01-13T16:38:56;5.50;97.30
8067;DHT22;4076;48.076;9.118;2023-01-13T16:41:22;5.40;97.80
8067;DHT22;4076;48.076;9.118;2023-01-13T16:43:49;5.30;98.30
8067;DHT22;4076;48.076;9.118;2023-01-13T16:46:26;5.20;98.80
8067;DHT22;4076;48.076;9.118;2023-01-13T16:49:00;5.20;99.40
8067;DHT22;4076;48.076;9.118;2023-01-13T16:51:26;5.10;99.90
8067;DHT22;4076;48.076;9.118;2023-01-13T16:53:51;5.10;99.90
8067;DHT22;4076;48.076;9.118;2023-01-13T16:56:25;5.00;99.90
8067;DHT22;4076;48.076;9.118;2023-01-13T16:58:53;4.90;99.90
8067;DHT22;4076;48.076;9.118;2023-01-13T17:01:27;4.80;99.90
8067;DHT22;4076;48.076;9.118;2023-01-13T17:03:54;4.60;99.90
8067;DHT22;4076;48.076;9.118;2023-01-13T17:06:24;4.40;99.90
8067;DHT22;4076;48.076;9.118;2023-01-13T17:08:51;4.30;99.90
8067;DHT22;4076;48.076;9.118;2023-01-13T17:11:18;4.20;99.90
8067;DHT22;4076;48.076;9.118;2023-01-13T17:13:44;4.20;99.90
8067;DHT22;4076;48.076;9.118;2023-01-13T17:16:20;4.20;99.90
8067;DHT22;4076;48.076;9.118;2023-01-13T17:18:47;4.20;99.90
8067;DHT22;4076;48.076;9.118;2023-01-13T17:21:13;4.30;99.90
8067;DHT22;4076;48.076;9.118;2023-01-13T17:23:38;4.30;99.90
8067;DHT22;4076;48.076;9.118;2023-01-13T17:26:04;4.40;99.90
8067;DHT22;4076;48.076;9.118;2023-01-13T17:28:30;4.50;99.90
8067;DHT22;4076;48.076;9.118;2023-01-13T17:30:56;4.50;99.90
8067;DHT22;4076;48.076;9.118;2023-01-13T17:33:21;4.60;99.90
8067;DHT22;4076;48.076;9.118;2023-01-13T17:35:47;4.70;99.90
8067;DHT22;4076;48.076;9.118;2023-01-13T17:38:13;4.80;99.90
8067;DHT22;4076;48.076;9.118;2023-01-13T17:40:38;4.80;99.90
8067;DHT22;4076;48.076;9.118;2023-01-13T17:43:04;4.90;99.90
8067;DHT22;4076;48.076;9.118;2023-01-13T17:45:29;4.90;99.90
8067;DHT22;4076;48.076;9.118;2023-01-13T17:47:56;4.90;99.90
8067;DHT22;4076;48.076;9.118;2023-01-13T17:50:24;4.90;99.90
8067;DHT22;4076;48.076;9.118;2023-01-13T17:52:52;5.00;99.90
8067;DHT22;4076;48.076;9.118;2023-01-13T17:55:18;5.00;99.90
8067;DHT22;4076;48.076;9.118;2023-01-13T17:57:44;5.00;99.90
8067;DHT22;4076;48.076;9.118;2023-01-13T18:00:10;5.10;99.90
8067;DHT22;4076;48.076;9.118;2023-01-13T18:02:36;5.10;99.90
8067;DHT22;4076;48.076;9.118;2023-01-13T18:05:02;5.10;99.90
8067;DHT22;4076;48.076;9.118;2023-01-13T18:07:27;5.20;99.90
8067;DHT22;4076;48.076;9.118;2023-01-13T18:09:53;5.20;99.90
8067;DHT22;4076;48.076;9.118;2023-01-13T18:12:18;5.20;99.90
8067;DHT22;4076;48.076;9.118;2023-01-13T18:14:44;5.30;99.90
8067;DHT22;4076;48.076;9.118;2023-01-13T18:17:10;5.30;99.90
8067;DHT22;4076;48.076;9.118;2023-01-13T18:19:35;5.30;99.90
8067;DHT22;4076;48.076;9.118;2023-01-13T18:22:20;5.20;99.90
8067;DHT22;4076;48.076;9.118;2023-01-13T18:25:04;5.20;99.90
8067;DHT22;4076;48.076;9.118;2023-01-13T18:27:48;5.20;99.90
8067;DHT22;4076;48.076;9.118;2023-01-13T18:30:14;5.20;99.90
8067;DHT22;4076;48.076;9.118;2023-01-13T18:32:41;5.20;99.90
8067;DHT22;4076;48.076;9.118;2023-01-13T18:35:08;5.10;99.90
8067;DHT22;4076;48.076;9.118;2023-01-13T18:37:36;5.10;99.90
8067;DHT22;4076;48.076;9.118;2023-01-13T18:40:04;5.10;99.90
8067;DHT22;4076;48.076;9.118;2023-01-13T18:42:30;5.10;99.90
8067;DHT22;4076;48.076;9.118;2023-01-13T18:45:14;5.10;99.90
8067;DHT22;4076;48.076;9.118;2023-01-13T18:47:40;5.00;99.90
8067;DHT22;4076;48.076;9.118;2023-01-13T18:50:07;5.00;99.90